KGDV

Details ICAO KGDV (GDV)
Name Dawson Community
Region United States
Timezone America/Denver (UTC-7.0)
Plans Departing 0
Arriving 1
Stats Elevation 2,456 ft / 749 m (AMSL)
Location 47.139161° -104.807902°
Runways 2
Magnetic Variation 8.720° E
Sunrise 2017-12-14 14:39:43 UTC / 2017-12-14 07:39:43 Local
Sunset 2017-12-14 23:11:11 UTC / 2017-12-14 16:11:11 Local
Advertisement - Login to hide

Runways

ID Width Length Bearing (true) Bearing (mag) Surface Threshold Offset Overrun Length
02 60 ft / 18 m 2,996 ft / 913 m 36.32° 27.60° Asphalt 0 ft / 0 m 0 ft / 0 m
12 100 ft / 30 m 5,699 ft / 1,737 m 136.44° 127.72° Asphalt 0 ft / 0 m 0 ft / 0 m
20 60 ft / 18 m 2,996 ft / 913 m 216.32° 207.60° Asphalt 0 ft / 0 m 0 ft / 0 m
30 100 ft / 30 m 5,699 ft / 1,737 m 316.45° 307.73° Asphalt 0 ft / 0 m 0 ft / 0 m

Map

Weather


0- 5 10 15 20 25 30 35+ Temperature / ° C

Clouds and Precipitation
Forecast for 2017-12-14 18:00 UTC. Updated an hour ago

Ground ~20,000 ft ~40,000 ft Winds

METAR

KGDV 141756Z AUTO 31014KT 10SM OVC021 01/M04 A3025 RMK AO2 SLP265 60000 T00111039 10017 21006 50009 FZRANO

TAF

KGDV 141722Z 1418/1518 32015KT P6SM SCT015 BKN020 OVC060 TEMPO 1418/1422 OVC020 FM142200 25007KT P6SM FEW025 BKN060 FM150400 23007KT P6SM FEW100 BKN250

Frequencies

Recorded 135.07 MHz AWOS 3
Unicom 122.80 MHz CTAF/UNICOM
Warning: Do not use this data for real-world aviation or navigation. No guarantee of current accuracy is given.